Bunyola, Spain
Current Conditions -  °F | °C
As of 11:30 PM on Friday 31 Oct 2014 (Local Time) from LEPA Reporting Station
Few Clouds Few Clouds  
Wind Chill: 61°   Ceiling: Unl
Heat Index: 61°   Visibility: 6mi
Dew Point: 57°   Wind: 5mph
Humidity: 88%   Direction: 50°NE
Pressure: 30.24"   Gusts: NA
Location:  39.7°N, 2.7°E
Report Text: LEPA 312230Z 05004KT 9999 FEW035 16/14 Q1024 NOSIG
Loading
Personal Weather Stations






























Interactive Weather Map
Tropical Storm Tracking
New forecast layout! Learn more

10-Day Weather Forecast

Advertisements
Track Severe Weather on mobile